Relevés horaires Matro (Suisse)


Relevés horaires à Matro - Jeudi 30 Oct. 2014
Heure UTC1 Température [°C] Vent [km/h] Hum. [%] Pres.4 [hPa] Visi. [Km] Nébu. [octa] Préc.5 [mm] Cond.
2m. Res. Ros. Dir.2 Vit. Moy. Raf.3
23:00 5.7 1.9 -1.1 NO 20.4 20.4 31.5 62 850(0.3/3h) -- -- -- --
22:00 5.7 1.5 -0.9 NNO 24.1 24.1 33.3 62 850(0.6/3h) -- -- -- --
21:00 5.6 1.6 -1.2 NO 22.2 25.9 33.3 62 850(0.7/3h) -- -- -- --
20:00 5.3 1.6 -1.6 NO 18.5 18.5 25.9 61 850(0.8/3h) -- -- -- --
19:00 5.4 1.5 -1.8 NNO 20.4 25.9 33.3 60 850(0.9/3h) -- -- -- --
18:00 5.4 0.8 -2.0 NNO 27.8 35.2 46.3 59 850(0.9/3h) -- -- -- --
17:00 5.9 1.4 -2.1 NO 27.8 27.8 33.3 56 850(0.7/3h) -- -- -- --
16:00 6.3 2.9 -2.1 NO 18.5 25.9 31.5 55 850(0.4/3h) -- -- -- --
15:00 6.4 2.1 -2.1 NO 27.8 35.2 46.3 54 850(0.2/3h) -- -- -- --
14:00 6.0 1.1 -1.6 NO 33.3 33.3 44.4 58 850(0.0/3h) -- -- -- --
13:00 6.5 2.5 -1.6 NO 24.1 24.1 40.7 56 850(0.0/3h) -- -- -- --
12:00 6.6 5.2 -1.7 NO 7.4 25.9 42.6 55 850(0.4/3h) -- -- -- --
11:00 6.2 3.3 -2.0 NO 14.8 20.4 33.3 56 850(1.0/3h) -- -- -- --
10:00 6.0 1.9 -2.0 NNO 24.1 24.1 42.6 56 850(1.3/3h) -- -- -- --
09:00 5.8 1.5 -2.5 NNO 25.9 25.9 38.9 55 850(1.4/3h) -- -- -- --
08:00 5.1 1.4 -4.7 NNO 18.5 24.1 33.3 49 850(1.4/3h) -- -- -- --
07:00 4.6 -0.1 -9.6 NNO 25.9 25.9 37.0 35 850(1.1/3h) -- -- -- --
06:00 4.4 0 -11.1 NO 22.2 27.8 35.2 31 850(1.0/3h) -- -- -- --
05:00 4.5 0.2 -17.0 NO 22.2 25.9 31.5 19 850(0.3/3h) -- -- -- --
04:00 4.4 -0.2 -18.0 NO 24.1 24.1 33.3 18 850(0.2/3h) -- -- -- --
03:00 4.6 -0.3 -18.5 NO 27.8 27.8 35.2 17 850(0.0/3h) -- -- -- --
02:00 4.3 -0.1 -19.7 NNO 22.2 25.9 35.2 15 850(0.3/3h) -- -- -- --
01:00 4.6 0.3 -21.6 NO 22.2 22.2 27.8 13 850(0.6/3h) -- -- -- --
00:00 4.0 -0.5 -19.1 NO 22.2 33.3 40.7 17 850(0.5/3h) -- -- -- --

1 Coordinated Universal Time. Actuellement il est 22:00 locale et 20:00 UTC.

2 Le vent souffle depuis la direction indiquée vers la direction oposée.

3 Les rafales max. sont disponible 40 min après l'heure du relevé.

4 Pour les stations d'altitude (plus de 600m) le géopotentiel du niveau le plus proche de la pression obligatoire est indiqué.

5 Les stations disposant d'un diffuseur peuvent indiquer "trace". Cela signifie que des précipitations ont touchés le sol mais que la quantité est inférieure à 0.1 mm.

Copyright

Les données affichées sur cette page sont la propriété exclusive de Météo Suisse.

Récapitulatif de la journée
Température [°C] Vent [km/h] Ensoleillement4 [h] Precipitations totale5 [mm] Pression [Hpa]
Min1 Max.2 Moy.3 Max. Min Max.
3.5 7.0 26.2 46.3 8 h 42 min 0 850.0 850.0

1 Température minimale relevée entre 18:00 UTC la veille et 18:00 UTC le jour donné.

2 Température maximale relevée entre 06:00 UTC le jour donné et 06:00 UTC le lendemain.

3 Vent moyen de la journée basé sur les relevés horaires.

4 Ensoleillement en heures relevé entre 06:00 UTC la veille et 06:00 UTC le jour donné.

5 Précipitations totales tombées entre 06:00 UTC la jour donné et 06:00 UTC le lendemain.

Graphiques horaires